Airfield :
LOGIN :

Register | Disclaimer

   EN    FR    IT 

 










Legend :    VFR   Marginal VFR   IFR   Intensive IFR   Very Intensive IFR
Visi :
Ceiling :
>= 8 km
>= 3000ft
5 to 8 km
1000 to 3000 ft
1500m to 5 km
500 to 1000 ft
800 to 1500m
200 to 500 ft
< 800m
< 200 ft
Symbols :   Thunderstorms  Fog  Heavy snow  Heavy precipitations  Wind > 20 kt
SIGMETs :     Misc.  Thunderstorms  Icing  Turbulence  Mountain Waves  Volcanic Ashes







- Airport Elevation : 39 ft
- IATA code : TRS


LIPQ - Friuli Venezia Giulia Apt. Trieste

CURRENT METAR :
  • 190750Z 28003KT 220V010 CAVOK 27/12 Q1020

EXPIRED METARs :
  • 190720Z VRB02KT CAVOK 26/13 Q1020
  • 190650Z VRB02KT CAVOK 25/12 Q1020
  • 190620Z 33003KT 300V360 CAVOK 23/14 Q1019
  • 190550Z VRB02KT CAVOK 21/15 Q1019
  • 190520Z VRB02KT CAVOK 20/15 Q1019

TAF TAF LIPQ
Valid from the 19 at 06:00 until the 20 at 06:00 UTC


190500Z 1906/2006 08007KT 9999 FEW030
No reported NOTAMs for that airfield.



MET'MAP, your aeronautical weather chart ! - Copyright ORBIFLY December 2007 - Disclaimer

ORBIFLY MET'MAP TEAM :

Programming & Development : Alexandra Zaïnal
Concept & Development : Baudouin d'Aumeries
Co-Development & Prog : Marc-Olivier Méhu
Technical & hardware support : Manuel Goepfert

Contact : metmap@orbifly.com




SOURCES & CREDITS :

   NOAA